Time;durP1;ratioP1;P1;durP2;ratioP2;P2;SDS_P1;SDS_P2;PMS_P1;PMS_P2;Temp;Humidity;BMP_temperature;BMP_pressure;BME280_temperature;BME280_humidity;BME280_pressure;Samples;Min_cycle;Max_cycle;Signal;HPM_P1;HPM_P2
2021/11/08 00:00:59;;;;;;;9.33;3.87;;;4.40;99.90;4.10;96769.00;;;;5041486;28;20443;-85
2021/11/08 00:03:52;;;;;;;3.50;3.17;;;4.50;99.90;3.90;96773.00;;;;5047249;28;20455;-85
2021/11/08 00:06:41;;;;;;;4.27;2.57;;;4.50;99.90;3.80;96765.00;;;;5049785;28;20575;-85
2021/11/08 00:09:31;;;;;;;3.50;3.20;;;4.50;99.90;3.80;96778.00;;;;5046277;28;20479;-85
2021/11/08 00:12:22;;;;;;;4.13;3.10;;;4.40;99.90;3.80;96786.00;;;;5049246;28;20812;-86
2021/11/08 00:15:15;;;;;;;3.23;2.83;;;4.40;99.90;4.00;96779.00;;;;5069389;28;20454;-83
2021/11/08 00:18:07;;;;;;;3.40;2.87;;;4.40;99.90;4.00;96783.00;;;;5070530;28;20430;-84
2021/11/08 00:20:58;;;;;;;6.47;3.53;;;4.50;99.90;3.90;96784.00;;;;5072626;28;20438;-85
2021/11/08 00:23:47;;;;;;;5.53;3.20;;;4.50;99.90;4.10;96783.00;;;;5071422;28;20446;-85
2021/11/08 00:26:36;;;;;;;6.03;3.70;;;4.50;99.90;4.20;96778.00;;;;5061806;28;20426;-84
2021/11/08 00:29:25;;;;;;;4.23;3.63;;;4.50;99.90;4.30;96779.00;;;;5071688;28;20647;-85
2021/11/08 00:32:15;;;;;;;4.83;3.07;;;4.60;99.90;4.40;96779.00;;;;5065882;28;20199;-86
2021/11/08 00:35:05;;;;;;;3.37;2.90;;;4.60;99.90;4.20;96787.00;;;;5077793;28;20219;-87
2021/11/08 00:37:55;;;;;;;4.33;3.30;;;4.70;99.90;4.30;96788.00;;;;5052118;28;20224;-85
2021/11/08 00:40:45;;;;;;;3.90;3.33;;;4.70;99.90;4.40;96793.00;;;;5050578;28;20913;-86
2021/11/08 00:43:34;;;;;;;5.90;3.03;;;4.70;99.90;4.40;96804.00;;;;5051377;28;20209;-85
2021/11/08 00:46:23;;;;;;;4.63;3.33;;;4.70;99.90;4.30;96813.00;;;;5050989;28;20204;-85
2021/11/08 00:49:14;;;;;;;4.10;3.03;;;4.70;99.90;4.40;96811.00;;;;5052279;28;20470;-85
2021/11/08 00:52:05;;;;;;;3.93;3.10;;;4.70;99.90;4.60;96797.00;;;;5056926;28;20203;-85
2021/11/08 00:54:55;;;;;;;5.50;3.53;;;4.80;99.90;4.60;96803.00;;;;5056124;28;20216;-85
2021/11/08 00:57:47;;;;;;;3.90;2.90;;;4.80;99.90;4.50;96811.00;;;;5050947;28;20200;-86
2021/11/08 01:00:36;;;;;;;7.03;3.10;;;4.80;99.90;4.50;96817.00;;;;5050891;28;20224;-86
2021/11/08 01:03:24;;;;;;;5.87;3.43;;;4.80;99.90;4.40;96816.00;;;;5050275;28;20201;-86
2021/11/08 01:06:15;;;;;;;3.47;2.80;;;4.80;99.90;4.60;96803.00;;;;5051079;28;20208;-85
2021/11/08 01:09:05;;;;;;;4.30;3.03;;;4.80;99.90;4.70;96810.00;;;;5049462;28;20231;-85
2021/11/08 01:11:56;;;;;;;5.77;3.23;;;4.90;99.90;4.60;96803.00;;;;5050100;28;20207;-85
2021/11/08 01:14:45;;;;;;;4.03;2.93;;;4.90;99.90;4.70;96822.00;;;;5057818;28;20227;-85
2021/11/08 01:17:34;;;;;;;5.80;3.83;;;4.90;99.90;4.90;96821.00;;;;5052414;28;20201;-85
2021/11/08 01:20:31;;;;;;;3.93;2.73;;;5.00;99.90;5.10;96820.00;;;;5050209;28;20430;-85
2021/11/08 01:23:23;;;;;;;5.17;2.87;;;5.10;99.90;5.00;96819.00;;;;5051024;28;20203;-86
2021/11/08 01:26:14;;;;;;;4.80;2.90;;;5.10;99.90;4.90;96809.00;;;;5060002;28;20205;-85
2021/11/08 01:29:05;;;;;;;5.47;2.73;;;5.10;99.90;4.90;96804.00;;;;5051162;28;20705;-85
2021/11/08 01:31:54;;;;;;;2.80;2.53;;;5.20;99.90;5.00;96808.00;;;;5049726;28;20202;-85
2021/11/08 01:34:43;;;;;;;3.60;2.37;;;5.20;99.90;4.80;96802.00;;;;5050353;28;20231;-85
2021/11/08 01:37:32;;;;;;;3.10;2.80;;;5.20;99.90;4.70;96802.00;;;;5049597;28;20216;-85
2021/11/08 01:40:21;;;;;;;5.20;3.10;;;5.10;99.90;4.50;96804.00;;;;5050455;28;20215;-86
2021/11/08 01:43:13;;;;;;;4.03;3.03;;;5.10;99.90;4.60;96814.00;;;;5049037;28;20604;-86
2021/11/08 01:46:04;;;;;;;3.20;2.87;;;5.00;99.90;4.70;96825.00;;;;5049057;28;20200;-85
2021/11/08 01:48:53;;;;;;;3.13;2.83;;;5.00;99.90;4.90;96834.00;;;;5055836;28;20688;-85
2021/11/08 01:51:42;;;;;;;6.80;3.00;;;5.10;99.90;4.90;96847.00;;;;5070468;28;20208;-85
2021/11/08 01:54:31;;;;;;;4.27;3.23;;;5.10;99.90;5.00;96838.00;;;;5059603;28;20244;-86
2021/11/08 01:57:20;;;;;;;5.50;3.20;;;5.10;99.90;5.00;96846.00;;;;5059724;28;20192;-85
2021/11/08 02:00:11;;;;;;;4.13;2.43;;;5.20;99.90;5.10;96849.00;;;;5068631;28;20688;-86
2021/11/08 02:03:01;;;;;;;2.77;2.53;;;5.20;99.90;5.10;96842.00;;;;5070971;28;20204;-85
2021/11/08 02:05:50;;;;;;;3.40;2.73;;;5.20;99.90;5.00;96848.00;;;;5069657;28;20203;-86
2021/11/08 02:08:40;;;;;;;4.33;3.10;;;5.30;99.90;5.00;96853.00;;;;5072055;28;20227;-85
2021/11/08 02:11:29;;;;;;;6.50;3.13;;;5.20;99.90;5.00;96850.00;;;;5068639;28;20211;-86
2021/11/08 02:14:20;;;;;;;3.73;2.40;;;5.30;99.90;5.10;96858.00;;;;5067763;28;20223;-85
2021/11/08 02:17:09;;;;;;;6.17;4.07;;;5.30;99.90;4.90;96857.00;;;;5067814;28;20200;-86
2021/11/08 02:20:14;;;;;;;4.60;2.67;;;5.30;99.90;4.70;96866.00;;;;5068336;28;20740;-85
2021/11/08 02:23:06;;;;;;;5.57;3.47;;;5.20;99.90;4.70;96853.00;;;;5069041;28;20200;-85
2021/11/08 02:26:00;;;;;;;3.03;2.10;;;5.20;99.90;4.70;96862.00;;;;5062705;28;20678;-85
2021/11/08 02:28:52;;;;;;;3.47;2.60;;;5.10;99.90;4.60;96862.00;;;;5049923;28;20232;-85
2021/11/08 02:31:41;;;;;;;3.80;2.83;;;5.10;99.90;4.70;96857.00;;;;5049549;28;20197;-84
2021/11/08 02:34:30;;;;;;;5.67;3.10;;;5.10;99.90;4.80;96864.00;;;;5058101;28;20646;-83
2021/11/08 02:37:20;;;;;;;3.17;2.13;;;5.00;99.90;4.90;96850.00;;;;5068509;28;20234;-85
2021/11/08 02:40:18;;;;;;;2.47;2.27;;;5.10;99.90;4.80;96857.00;;;;5069747;28;20823;-85
2021/11/08 02:43:07;;;;;;;2.43;2.20;;;5.10;99.90;4.80;96871.00;;;;5069037;28;20214;-84
2021/11/08 02:46:06;;;;;;;7.13;3.17;;;5.10;99.90;4.80;96864.00;;;;5070139;28;20203;-85
2021/11/08 02:48:58;;;;;;;3.07;2.77;;;5.10;99.90;4.70;96860.00;;;;5069274;28;20231;-85
2021/11/08 02:51:57;;;;;;;5.87;3.37;;;5.10;99.90;4.80;96857.00;;;;5068064;28;20204;-85
2021/11/08 02:54:51;;;;;;;2.90;2.40;;;5.10;99.90;4.80;96859.00;;;;5058480;28;20743;-85
2021/11/08 02:57:40;;;;;;;2.47;2.27;;;5.10;99.90;4.90;96866.00;;;;5049748;28;20661;-86
2021/11/08 03:00:30;;;;;;;3.13;2.40;;;5.10;99.90;5.00;96875.00;;;;5046774;28;20677;-85
2021/11/08 03:03:19;;;;;;;4.23;2.70;;;5.20;99.90;5.00;96861.00;;;;5048267;28;20208;-85
2021/11/08 03:06:15;;;;;;;4.40;2.90;;;5.20;99.90;4.70;96868.00;;;;5048014;28;20205;-86
2021/11/08 03:09:12;;;;;;;4.20;2.57;;;5.20;99.90;4.70;96876.00;;;;5048819;28;20224;-86
2021/11/08 03:12:10;;;;;;;3.30;2.47;;;5.10;99.90;4.70;96876.00;;;;5048200;28;20591;-85
2021/11/08 03:15:05;;;;;;;3.50;2.47;;;5.00;99.90;4.50;96882.00;;;;5056337;28;20227;-86
2021/11/08 03:18:02;;;;;;;5.00;3.03;;;5.00;99.90;4.70;96883.00;;;;5065647;28;20233;-85
2021/11/08 03:20:51;;;;;;;2.70;2.50;;;4.90;99.90;4.80;96894.00;;;;5067059;28;20601;-86
2021/11/08 03:23:40;;;;;;;2.57;2.37;;;5.00;99.90;4.80;96877.00;;;;5066653;28;20199;-85
2021/11/08 03:26:38;;;;;;;4.67;3.50;;;5.00;99.90;4.90;96897.00;;;;5046259;28;20200;-85
2021/11/08 03:29:28;;;;;;;4.93;3.00;;;5.00;99.90;4.90;96881.00;;;;5055852;28;20246;-85
2021/11/08 03:32:21;;;;;;;4.30;2.90;;;5.00;99.90;5.00;96888.00;;;;5066375;28;20208;-85
2021/11/08 03:35:12;;;;;;;2.83;2.60;;;5.00;99.90;4.90;96894.00;;;;5066771;28;20228;-86
2021/11/08 03:38:03;;;;;;;4.27;3.23;;;5.10;99.90;5.00;96906.00;;;;5067703;28;20218;-85
2021/11/08 03:40:52;;;;;;;3.40;2.83;;;5.10;99.90;5.00;96907.00;;;;5068608;28;20226;-85
2021/11/08 03:43:41;;;;;;;3.53;3.00;;;5.10;99.90;5.00;96902.00;;;;5066921;28;20227;-85
2021/11/08 03:46:31;;;;;;;4.10;2.33;;;5.10;99.90;4.80;96907.00;;;;5066404;28;20207;-85
2021/11/08 03:49:20;;;;;;;2.90;2.50;;;5.10;99.90;4.60;96929.00;;;;5067010;28;20227;-85
2021/11/08 03:52:09;;;;;;;4.10;3.07;;;5.10;99.90;4.60;96929.00;;;;5066165;28;20207;-85
2021/11/08 03:54:58;;;;;;;3.27;2.97;;;5.00;99.90;4.60;96927.00;;;;5046866;28;20761;-85
2021/11/08 03:57:48;;;;;;;5.40;3.40;;;5.00;99.90;4.50;96923.00;;;;5048441;28;20216;-85
2021/11/08 04:00:37;;;;;;;3.23;2.47;;;4.90;99.90;4.50;96935.00;;;;5049154;28;20200;-85
2021/11/08 04:03:28;;;;;;;3.20;2.67;;;4.90;99.90;4.60;96922.00;;;;5048627;28;20693;-85
2021/11/08 04:06:17;;;;;;;3.30;2.70;;;4.90;99.90;4.60;96924.00;;;;5046833;28;20201;-85
2021/11/08 04:09:09;;;;;;;2.87;2.60;;;4.90;99.90;4.60;96922.00;;;;5047738;28;20302;-85
2021/11/08 04:12:00;;;;;;;3.90;2.80;;;4.90;99.90;4.60;96933.00;;;;5058584;28;20207;-85
2021/11/08 04:14:49;;;;;;;7.07;3.43;;;4.90;99.90;4.50;96942.00;;;;5055459;28;20223;-85
2021/11/08 04:17:43;;;;;;;3.30;3.00;;;4.90;99.90;4.40;96940.00;;;;5066275;28;20210;-85
2021/11/08 04:20:34;;;;;;;2.77;2.40;;;4.90;99.90;4.60;96950.00;;;;5066130;28;20212;-84
2021/11/08 04:23:25;;;;;;;3.03;2.77;;;4.90;99.90;4.60;96955.00;;;;5065640;28;20204;-85
2021/11/08 04:26:18;;;;;;;5.33;2.77;;;4.90;99.90;4.60;96949.00;;;;5063326;28;20200;-86
2021/11/08 04:29:07;;;;;;;3.23;2.67;;;4.90;99.90;4.60;96952.00;;;;5060750;28;20214;-84
2021/11/08 04:31:57;;;;;;;2.87;2.57;;;4.90;99.90;4.70;96945.00;;;;5066738;28;20576;-85
2021/11/08 04:34:50;;;;;;;4.13;2.57;;;4.90;99.90;4.80;96949.00;;;;5070715;28;20242;-85
2021/11/08 04:37:59;;;;;;;4.67;3.57;;;4.90;99.90;4.70;96953.00;;;;5054804;28;20203;-85
2021/11/08 04:41:00;;;;;;;2.90;2.70;;;5.00;99.90;4.60;96955.00;;;;5066943;28;20673;-85
2021/11/08 04:43:59;;;;;;;3.60;2.83;;;5.00;99.90;4.70;96967.00;;;;5068287;28;20719;-85
2021/11/08 04:47:09;;;;;;;2.97;2.73;;;4.90;99.90;4.80;96974.00;;;;5062454;28;20213;-85
2021/11/08 04:50:05;;;;;;;3.87;2.83;;;5.00;99.90;4.80;96988.00;;;;5063004;28;20254;-85
2021/11/08 04:53:21;;;;;;;3.80;2.63;;;5.00;99.90;4.70;96988.00;;;;5064975;28;20200;-85
2021/11/08 04:56:36;;;;;;;4.40;2.33;;;5.00;99.90;4.70;96988.00;;;;5046718;28;20213;-85
2021/11/08 05:24:56;;;;;;;4.03;2.13;;;5.10;99.90;4.60;96996.00;;;;5056705;28;20224;-83
2021/11/08 05:28:16;;;;;;;3.03;2.73;;;5.00;99.90;4.40;96989.00;;;;5054218;28;20200;-85
2021/11/08 05:31:05;;;;;;;3.70;2.87;;;5.00;99.90;4.30;97007.00;;;;5048048;28;20227;-83
2021/11/08 05:33:54;;;;;;;5.93;3.07;;;4.90;99.90;4.40;97006.00;;;;5050276;28;20225;-85
2021/11/08 05:36:43;;;;;;;3.43;3.10;;;4.90;99.90;4.30;97002.00;;;;5050534;28;20430;-85
2021/11/08 05:39:34;;;;;;;3.30;2.67;;;4.80;99.90;4.30;97006.00;;;;5049417;28;20212;-84
2021/11/08 05:42:24;;;;;;;5.20;2.80;;;4.80;99.90;4.40;97021.00;;;;5048697;28;20829;-85
2021/11/08 05:45:16;;;;;;;4.23;2.80;;;4.70;99.90;4.30;97032.00;;;;5050628;28;20972;-84
2021/11/08 05:48:08;;;;;;;4.80;2.87;;;4.80;99.90;4.50;97048.00;;;;5049356;28;20197;-85
2021/11/08 05:50:56;;;;;;;4.33;2.37;;;4.80;99.90;4.60;97057.00;;;;5057304;28;20230;-84
2021/11/08 05:53:46;;;;;;;3.57;2.80;;;4.70;99.90;4.60;97050.00;;;;5070104;28;20217;-85
2021/11/08 05:56:49;;;;;;;3.37;2.47;;;4.80;99.90;4.70;97057.00;;;;5060483;28;20207;-84
2021/11/08 05:59:56;;;;;;;3.77;2.63;;;4.80;99.90;4.60;97062.00;;;;5066489;28;20269;-85
2021/11/08 06:49:29;;;;;;;5.50;3.57;;;5.20;99.90;4.80;97146.00;;;;5059867;28;20237;-84
2021/11/08 06:52:19;;;;;;;5.03;2.73;;;5.20;99.90;4.70;97158.00;;;;5067953;28;20708;-84
2021/11/08 06:55:09;;;;;;;7.53;3.33;;;5.20;99.90;4.70;97154.00;;;;5066518;28;20223;-84
2021/11/08 06:58:02;;;;;;;6.93;3.43;;;5.10;99.90;4.80;97157.00;;;;5068457;28;20203;-84
2021/11/08 07:00:52;;;;;;;5.17;3.87;;;5.10;99.90;4.60;97156.00;;;;5067307;28;20204;-85
2021/11/08 07:03:41;;;;;;;6.83;4.53;;;5.10;99.90;4.50;97156.00;;;;5067424;28;20290;-84
2021/11/08 07:06:30;;;;;;;11.70;5.60;;;5.00;99.90;4.70;97173.00;;;;5066503;28;20216;-85
2021/11/08 07:09:20;;;;;;;6.50;4.60;;;5.00;99.90;4.60;97177.00;;;;5067461;28;20223;-84
2021/11/08 07:12:12;;;;;;;4.50;3.77;;;5.00;99.90;4.90;97183.00;;;;5062966;28;20236;-84
2021/11/08 07:15:01;;;;;;;3.90;3.50;;;5.10;99.90;5.00;97181.00;;;;5054263;28;20223;-85
2021/11/08 07:17:52;;;;;;;5.87;4.27;;;5.10;99.90;5.10;97183.00;;;;5068156;28;20208;-85
2021/11/08 07:20:41;;;;;;;8.30;4.77;;;5.20;99.90;5.20;97185.00;;;;5068540;28;20214;-85
2021/11/08 07:23:30;;;;;;;9.23;3.77;;;5.20;99.90;5.40;97181.00;;;;5048232;28;20204;-85
2021/11/08 07:26:22;;;;;;;5.33;4.10;;;5.30;99.90;5.50;97198.00;;;;5058489;28;20209;-84
2021/11/08 07:29:13;;;;;;;6.47;4.00;;;5.40;99.90;5.60;97213.00;;;;5047334;28;20216;-84
2021/11/08 07:32:02;;;;;;;6.33;4.23;;;5.50;99.90;5.60;97215.00;;;;5047948;28;20235;-84
2021/11/08 07:34:52;;;;;;;4.80;3.80;;;5.60;99.90;5.70;97222.00;;;;5047245;28;20220;-84
2021/11/08 07:37:41;;;;;;;7.63;3.40;;;5.70;99.90;5.90;97224.00;;;;5048374;28;20205;-84
2021/11/08 07:40:30;;;;;;;5.40;3.93;;;5.80;99.90;6.00;97225.00;;;;5047090;28;20216;-84
2021/11/08 07:43:19;;;;;;;6.00;3.67;;;5.90;99.90;6.10;97236.00;;;;5047112;28;20756;-84
2021/11/08 07:46:09;;;;;;;5.07;4.13;;;5.90;99.90;6.20;97236.00;;;;5047689;28;20200;-85
2021/11/08 07:48:58;;;;;;;10.70;4.43;;;6.00;99.90;6.30;97230.00;;;;5054718;28;20203;-85
2021/11/08 07:51:49;;;;;;;7.70;3.90;;;6.10;99.90;6.40;97227.00;;;;5066663;28;20604;-84
2021/11/08 07:54:39;;;;;;;6.13;3.87;;;6.20;99.90;6.40;97230.00;;;;5057809;28;20666;-84
2021/11/08 07:57:28;;;;;;;8.27;4.33;;;6.30;99.90;6.40;97229.00;;;;5061488;28;20207;-85
2021/11/08 08:00:17;;;;;;;4.97;3.70;;;6.30;99.90;6.40;97230.00;;;;5063528;28;20196;-85
2021/11/08 08:03:06;;;;;;;6.80;4.80;;;6.40;99.90;6.40;97240.00;;;;5061889;28;20199;-84
2021/11/08 08:05:58;;;;;;;5.40;4.20;;;6.40;99.90;6.40;97241.00;;;;5067287;28;20196;-84
2021/11/08 08:08:50;;;;;;;6.03;4.30;;;6.40;99.90;6.50;97244.00;;;;5046630;28;20205;-84
2021/11/08 08:11:39;;;;;;;5.67;4.20;;;6.40;99.90;6.50;97244.00;;;;5059821;28;20606;-85
2021/11/08 08:14:29;;;;;;;7.27;4.13;;;6.50;99.90;6.60;97242.00;;;;5064501;28;20227;-84
2021/11/08 08:17:17;;;;;;;9.20;4.40;;;6.50;99.90;6.50;97244.00;;;;5065801;28;20196;-85
2021/11/08 08:20:21;;;;;;;8.13;3.93;;;6.50;99.90;6.50;97241.00;;;;5066799;28;20204;-85
2021/11/08 08:23:10;;;;;;;5.63;3.80;;;6.60;99.90;6.60;97257.00;;;;5068096;28;20195;-85
2021/11/08 08:26:01;;;;;;;5.47;4.00;;;6.60;99.90;6.70;97265.00;;;;5061559;28;20220;-85
2021/11/08 08:28:50;;;;;;;9.57;4.40;;;6.60;99.90;6.70;97258.00;;;;5045975;28;20201;-85
2021/11/08 08:31:41;;;;;;;10.57;4.73;;;6.70;99.90;6.80;97257.00;;;;5047141;28;20220;-84
2021/11/08 08:34:31;;;;;;;8.83;4.70;;;6.70;99.90;6.70;97272.00;;;;5055463;28;20227;-84
2021/11/08 08:37:20;;;;;;;10.00;4.33;;;6.70;99.90;6.60;97271.00;;;;5069608;28;20208;-83
2021/11/08 08:40:10;;;;;;;6.23;4.20;;;6.80;99.90;6.70;97270.00;;;;5071062;28;20223;-84
2021/11/08 08:43:01;;;;;;;9.93;5.30;;;6.80;99.90;6.80;97264.00;;;;5070823;28;20208;-84
2021/11/08 08:45:50;;;;;;;7.73;4.13;;;6.80;99.90;6.90;97257.00;;;;5069589;28;20200;-84
2021/11/08 08:48:38;;;;;;;9.00;3.93;;;6.90;99.90;6.90;97267.00;;;;5071299;28;20208;-84
2021/11/08 08:51:28;;;;;;;11.80;4.03;;;6.90;99.90;7.00;97264.00;;;;5069897;28;20224;-84
2021/11/08 08:54:19;;;;;;;5.70;4.23;;;7.00;99.90;7.20;97270.00;;;;5062956;28;20709;-84
2021/11/08 08:57:09;;;;;;;13.00;4.30;;;7.00;99.90;7.30;97267.00;;;;5050071;28;20560;-83
2021/11/08 09:00:00;;;;;;;4.57;3.70;;;7.10;99.90;7.30;97276.00;;;;5053508;28;20547;-85
2021/11/08 09:03:01;;;;;;;7.77;4.03;;;7.20;99.90;7.50;97274.00;;;;5067369;28;20207;-84
2021/11/08 09:05:51;;;;;;;9.37;4.00;;;7.30;99.90;7.70;97283.00;;;;5061784;28;20568;-85
2021/11/08 09:08:40;;;;;;;6.40;3.60;;;7.30;99.90;7.80;97291.00;;;;5060794;28;20208;-84
2021/11/08 09:11:29;;;;;;;7.33;4.00;;;7.40;99.90;7.80;97291.00;;;;5064672;28;20670;-83
2021/11/08 09:14:18;;;;;;;7.13;3.87;;;7.50;99.90;7.90;97290.00;;;;5066727;28;20712;-84
2021/11/08 09:17:09;;;;;;;8.13;4.37;;;7.60;99.90;8.00;97289.00;;;;5059550;28;20227;-83
2021/11/08 09:19:58;;;;;;;8.40;3.60;;;7.70;99.90;8.10;97295.00;;;;5050558;28;20200;-84
2021/11/08 09:22:50;;;;;;;8.53;3.83;;;7.80;99.90;8.10;97302.00;;;;5050753;28;20205;-84
2021/11/08 09:25:39;;;;;;;5.03;2.80;;;7.90;99.90;8.30;97303.00;;;;5060150;28;20234;-84
2021/11/08 09:28:28;;;;;;;6.90;3.30;;;7.90;99.90;8.40;97295.00;;;;5050413;28;20201;-84
2021/11/08 09:31:19;;;;;;;6.27;2.97;;;8.10;99.90;8.50;97295.00;;;;5049194;28;20220;-84
2021/11/08 09:34:10;;;;;;;4.90;3.00;;;8.20;99.90;8.60;97294.00;;;;5049951;28;20224;-84
2021/11/08 09:36:59;;;;;;;5.37;3.23;;;8.30;99.90;8.70;97286.00;;;;5049540;28;20732;-84
2021/11/08 09:39:49;;;;;;;6.97;3.37;;;8.40;99.90;8.90;97289.00;;;;5049398;28;20216;-84
2021/11/08 09:42:38;;;;;;;3.77;2.33;;;8.50;99.90;9.10;97289.00;;;;5050677;28;20577;-85
2021/11/08 09:45:27;;;;;;;5.00;2.50;;;8.60;99.90;9.30;97281.00;;;;5048860;28;20228;-84
2021/11/08 09:48:17;;;;;;;4.50;2.80;;;8.80;99.90;9.40;97292.00;;;;5049065;28;20580;-84
2021/11/08 09:51:10;;;;;;;3.10;2.80;;;8.90;99.90;9.40;97301.00;;;;5048718;28;20211;-84
2021/11/08 09:53:59;;;;;;;3.53;2.27;;;9.10;99.90;9.50;97291.00;;;;5055449;28;20232;-84
2021/11/08 09:56:49;;;;;;;3.80;2.37;;;9.20;99.90;9.70;97298.00;;;;5049632;28;20208;-84
2021/11/08 09:59:38;;;;;;;2.33;1.80;;;9.30;99.90;9.70;97301.00;;;;5047827;28;20581;-85
2021/11/08 10:02:27;;;;;;;8.17;2.00;;;9.40;99.90;9.70;97302.00;;;;5060580;28;20212;-84
2021/11/08 10:05:16;;;;;;;4.03;1.67;;;9.50;99.90;9.60;97289.00;;;;5059193;28;20225;-85
2021/11/08 10:08:07;;;;;;;1.97;1.50;;;9.50;99.90;9.30;97286.00;;;;5048994;28;20243;-84
2021/11/08 10:10:59;;;;;;;1.67;1.57;;;9.60;99.90;9.60;97300.00;;;;5059846;28;20203;-84
2021/11/08 10:13:49;;;;;;;4.37;1.20;;;9.70;99.90;8.70;97302.00;;;;5048376;28;20238;-84
2021/11/08 10:16:40;;;;;;;1.43;1.13;;;9.50;99.90;8.90;97297.00;;;;5058936;28;20602;-85
2021/11/08 10:19:33;;;;;;;1.50;1.40;;;9.40;99.90;8.60;97296.00;;;;5069017;28;20208;-84
2021/11/08 10:22:23;;;;;;;1.63;0.90;;;9.20;99.90;8.30;97279.00;;;;5069519;28;20196;-85
2021/11/08 10:25:16;;;;;;;0.97;0.93;;;9.00;99.90;8.50;97271.00;;;;5068817;28;20700;-85
2021/11/08 10:28:09;;;;;;;2.53;2.43;;;8.80;99.90;8.90;97269.00;;;;5057894;28;20196;-85
2021/11/08 10:31:04;;;;;;;1.63;1.47;;;8.90;99.90;9.00;97259.00;;;;5061497;28;20598;-85
2021/11/08 10:33:53;;;;;;;1.63;1.50;;;9.00;99.90;8.90;97257.00;;;;5048600;28;20237;-85
2021/11/08 10:36:42;;;;;;;1.83;1.43;;;9.00;99.90;8.80;97244.00;;;;5062853;28;20200;-84
2021/11/08 10:39:34;;;;;;;2.90;1.50;;;9.10;99.90;9.20;97245.00;;;;5068894;28;20207;-84
2021/11/08 10:42:28;;;;;;;1.73;1.60;;;9.40;99.90;9.40;97256.00;;;;5062330;28;20299;-84
2021/11/08 10:45:22;;;;;;;3.53;2.07;;;9.60;99.90;9.00;97253.00;;;;5047171;28;20225;-84
2021/11/08 10:48:10;;;;;;;1.90;1.67;;;9.60;99.90;9.70;97230.00;;;;5047741;28;20208;-84
2021/11/08 10:51:02;;;;;;;2.07;1.23;;;9.70;99.90;10.60;97258.00;;;;5056839;28;20707;-85
2021/11/08 10:53:56;;;;;;;1.77;1.60;;;10.20;99.90;9.50;97242.00;;;;5067497;28;20232;-84
2021/11/08 10:56:48;;;;;;;1.53;1.43;;;10.20;99.90;10.40;97239.00;;;;5048427;28;20609;-84
2021/11/08 10:59:44;;;;;;;1.67;1.33;;;10.30;99.90;11.60;97223.00;;;;5047056;28;20203;-84
2021/11/08 11:02:33;;;;;;;2.93;1.50;;;10.70;99.90;12.00;97256.00;;;;5070053;28;20204;-84
2021/11/08 11:05:22;;;;;;;2.23;1.87;;;11.40;99.90;11.80;97248.00;;;;5060700;28;20233;-83
2021/11/08 11:08:14;;;;;;;1.20;1.10;;;11.60;99.90;12.00;97229.00;;;;5047353;28;20188;-83
2021/11/08 11:11:06;;;;;;;4.33;1.47;;;11.80;99.90;13.80;97205.00;;;;5064871;28;20696;-83
2021/11/08 11:13:57;;;;;;;3.97;1.70;;;12.30;99.90;13.80;97239.00;;;;5060952;28;20234;-85
2021/11/08 11:16:51;;;;;;;2.87;1.50;;;12.90;99.90;12.70;97231.00;;;;5067569;28;20204;-85
2021/11/08 11:19:41;;;;;;;1.67;1.53;;;13.20;99.90;11.80;97218.00;;;;5068212;28;20211;-84
2021/11/08 11:22:30;;;;;;;6.63;2.30;;;13.00;99.90;12.10;97214.00;;;;5068898;28;20582;-84
2021/11/08 11:25:21;;;;;;;2.07;1.73;;;12.70;99.90;12.30;97219.00;;;;5061516;28;20232;-83
2021/11/08 11:28:15;;;;;;;2.73;1.43;;;12.50;99.90;12.50;97215.00;;;;5061351;28;20212;-84
2021/11/08 11:31:13;;;;;;;1.43;1.20;;;12.40;99.90;12.80;97207.00;;;;5068970;28;20219;-83
2021/11/08 11:34:15;;;;;;;1.40;1.30;;;12.50;99.90;13.30;97183.00;;;;5057221;28;20239;-83
2021/11/08 11:37:14;;;;;;;2.20;1.30;;;12.80;99.90;14.10;97175.00;;;;5051971;28;20198;-84
2021/11/08 11:40:09;;;;;;;3.03;1.77;;;13.30;99.90;14.90;97197.00;;;;5066576;28;20219;-85
2021/11/08 11:43:01;;;;;;;1.93;1.30;;;14.00;99.90;14.50;97202.00;;;;5050358;28;20208;-83
2021/11/08 11:45:52;;;;;;;5.33;1.30;;;14.40;99.90;14.20;97195.00;;;;5045519;28;20192;-84
2021/11/08 11:48:41;;;;;;;2.87;1.50;;;14.50;99.90;14.10;97194.00;;;;5047933;28;20586;-84
2021/11/08 11:51:34;;;;;;;1.73;1.20;;;14.40;99.20;13.80;97201.00;;;;5054709;28;20227;-84
2021/11/08 11:54:29;;;;;;;1.93;1.40;;;14.30;98.10;13.90;97191.00;;;;5073648;28;20236;-85
2021/11/08 11:57:18;;;;;;;1.67;1.53;;;14.20;98.30;13.60;97200.00;;;;5047704;28;20204;-84
2021/11/08 12:00:09;;;;;;;1.47;1.20;;;14.00;98.00;13.50;97198.00;;;;5052079;28;20198;-83
2021/11/08 12:02:59;;;;;;;2.37;1.20;;;13.70;98.20;13.20;97195.00;;;;5062607;28;20208;-84
2021/11/08 12:05:54;;;;;;;1.60;1.40;;;13.60;98.00;13.10;97198.00;;;;5068751;28;20251;-84
2021/11/08 12:08:46;;;;;;;1.50;1.27;;;13.30;98.50;12.90;97199.00;;;;5047065;28;20211;-83
2021/11/08 12:11:39;;;;;;;2.23;1.43;;;13.10;99.00;12.70;97193.00;;;;5073887;28;20572;-84
2021/11/08 12:14:33;;;;;;;3.07;2.07;;;12.90;99.30;12.30;97191.00;;;;5067950;28;20235;-84
2021/11/08 12:17:22;;;;;;;1.20;1.20;;;12.70;99.60;11.10;97173.00;;;;5075262;28;20202;-85
2021/11/08 12:20:24;;;;;;;4.50;1.47;;;12.30;98.80;10.50;97180.00;;;;5059919;28;20204;-84
2021/11/08 12:23:15;;;;;;;1.97;1.77;;;11.90;99.60;10.80;97171.00;;;;5053970;28;20196;-84
2021/11/08 12:26:05;;;;;;;1.97;1.70;;;11.50;99.90;10.60;97165.00;;;;5063683;28;20205;-83
2021/11/08 12:29:07;;;;;;;2.23;1.67;;;11.30;99.90;9.90;97162.00;;;;5067533;28;20208;-84
2021/11/08 12:32:04;;;;;;;2.20;1.70;;;11.00;99.90;10.00;97161.00;;;;5072631;28;20203;-84
2021/11/08 12:34:55;;;;;;;4.10;2.00;;;10.60;99.90;10.40;97164.00;;;;5072027;28;20639;-84
2021/11/08 12:37:46;;;;;;;2.40;1.97;;;10.50;99.90;10.70;97167.00;;;;5076977;28;20618;-84
2021/11/08 12:40:35;;;;;;;2.33;1.80;;;10.60;99.90;10.50;97161.00;;;;5068612;28;20196;-86
2021/11/08 12:43:26;;;;;;;2.57;2.20;;;10.60;99.90;10.30;97161.00;;;;5066817;28;20202;-84
2021/11/08 12:46:20;;;;;;;1.57;1.37;;;10.60;99.90;10.20;97158.00;;;;5059629;28;20212;-84
2021/11/08 12:49:16;;;;;;;2.17;1.53;;;10.60;99.90;10.00;97158.00;;;;5054257;28;20213;-84
2021/11/08 12:52:13;;;;;;;2.03;1.93;;;10.50;99.90;10.20;97164.00;;;;5055110;28;20204;-85
2021/11/08 12:55:09;;;;;;;1.60;1.33;;;10.40;99.90;10.20;97177.00;;;;5063038;28;20224;-85
2021/11/08 12:58:00;;;;;;;2.30;1.93;;;10.30;99.90;10.30;97164.00;;;;5072780;28;20211;-84
2021/11/08 13:00:55;;;;;;;2.87;1.53;;;10.30;99.90;10.40;97162.00;;;;5073155;28;20756;-85
2021/11/08 13:03:46;;;;;;;2.37;1.77;;;10.30;99.90;10.40;97160.00;;;;5067238;28;20223;-84
2021/11/08 13:06:36;;;;;;;2.23;1.90;;;10.40;99.90;10.40;97158.00;;;;5053401;28;20207;-84
2021/11/08 13:09:26;;;;;;;1.90;1.67;;;10.40;99.90;10.70;97163.00;;;;5052549;28;20216;-84
2021/11/08 13:12:20;;;;;;;2.37;1.73;;;10.50;99.90;10.80;97164.00;;;;5054990;28;20558;-84
2021/11/08 13:15:13;;;;;;;3.03;2.10;;;10.50;99.90;10.80;97161.00;;;;5067761;28;20235;-83
2021/11/08 13:18:06;;;;;;;2.03;1.53;;;10.60;99.90;10.80;97155.00;;;;5078988;28;20200;-83
2021/11/08 13:20:56;;;;;;;2.60;2.00;;;10.60;99.90;10.80;97144.00;;;;5073801;28;20235;-83
2021/11/08 13:23:45;;;;;;;3.63;2.37;;;10.60;99.90;10.90;97154.00;;;;5064974;28;20619;-84
2021/11/08 13:26:34;;;;;;;2.97;1.90;;;10.70;99.90;11.00;97158.00;;;;5064885;28;20211;-83
2021/11/08 13:29:25;;;;;;;3.10;1.90;;;10.70;99.90;11.00;97164.00;;;;5064121;28;20572;-84
2021/11/08 13:32:15;;;;;;;3.10;1.90;;;10.70;99.90;11.00;97169.00;;;;5066715;28;20203;-85
2021/11/08 13:35:14;;;;;;;2.97;2.00;;;10.80;99.90;10.80;97168.00;;;;5049680;28;20220;-85
2021/11/08 13:38:08;;;;;;;3.23;2.00;;;10.80;99.90;10.80;97174.00;;;;5060932;28;20206;-84
2021/11/08 13:41:04;;;;;;;3.97;2.83;;;10.80;99.90;10.80;97170.00;;;;5077948;28;20203;-83
2021/11/08 13:43:58;;;;;;;2.13;1.80;;;10.70;99.90;10.80;97167.00;;;;5049893;28;20502;-84
2021/11/08 13:46:52;;;;;;;2.10;1.90;;;10.70;99.90;10.70;97170.00;;;;5049795;28;20231;-84
2021/11/08 13:49:41;;;;;;;3.67;1.67;;;10.70;99.90;10.60;97170.00;;;;5049806;28;20207;-83
2021/11/08 13:52:31;;;;;;;2.30;2.10;;;10.60;99.90;10.40;97180.00;;;;5049645;28;20662;-84
2021/11/08 13:55:20;;;;;;;2.27;2.03;;;10.50;99.90;10.50;97175.00;;;;5048284;28;20239;-84
2021/11/08 13:58:09;;;;;;;1.80;1.63;;;10.50;99.90;10.50;97179.00;;;;5049557;28;20204;-84
2021/11/08 14:01:03;;;;;;;2.77;2.37;;;10.40;99.90;10.50;97183.00;;;;5059608;28;20228;-84
2021/11/08 14:03:52;;;;;;;1.97;1.77;;;10.40;99.90;10.50;97183.00;;;;5060686;28;20226;-84
2021/11/08 14:06:44;;;;;;;2.40;1.80;;;10.40;99.90;10.60;97174.00;;;;5048836;28;20209;-83